createdAt,value
2022-12-08T00:03:45.024Z,97603.75
2022-12-08T00:09:06.250Z,97601.13
2022-12-08T00:14:08.625Z,97602.03
2022-12-08T00:19:10.994Z,97602.03
2022-12-08T00:24:13.457Z,97596.53
2022-12-08T00:29:17.750Z,97593.75
2022-12-08T00:34:20.606Z,97587.47
2022-12-08T00:39:23.098Z,97572.06
2022-12-08T00:44:25.599Z,97580.00
2022-12-08T00:49:28.232Z,97567.38
2022-12-08T00:54:30.747Z,97577.19
2022-12-08T00:59:33.223Z,97573.66
2022-12-08T01:04:35.630Z,97571.38
2022-12-08T01:09:38.325Z,97565.25
2022-12-08T01:14:40.682Z,97569.16
2022-12-08T01:19:43.282Z,97578.41
2022-12-08T01:24:45.918Z,97580.75
2022-12-08T01:29:48.289Z,97576.84
2022-12-08T01:34:50.666Z,97583.06
2022-12-08T01:39:53.041Z,97573.81
2022-12-08T01:45:00.488Z,97569.13
2022-12-08T01:50:06.071Z,97564.78
2022-12-08T01:55:31.212Z,97571.50
2022-12-08T02:00:33.650Z,97564.59
2022-12-08T02:05:39.079Z,97553.88
2022-12-08T02:10:43.119Z,97556.53
2022-12-08T02:15:54.690Z,97560.69
2022-12-08T02:21:29.025Z,97550.91
2022-12-08T02:26:40.215Z,97536.16
2022-12-08T02:32:13.460Z,97538.06
2022-12-08T02:37:23.002Z,97523.50
2022-12-08T02:42:43.789Z,97518.13
2022-12-08T02:47:46.857Z,97507.63
2022-12-08T02:52:49.439Z,97503.16
2022-12-08T02:58:24.123Z,97502.47
2022-12-08T03:04:00.337Z,97501.66
2022-12-08T03:09:17.214Z,97505.47
2022-12-08T03:14:21.611Z,97507.09
2022-12-08T03:19:27.898Z,97508.16
2022-12-08T03:24:36.118Z,97505.47
2022-12-08T03:29:38.606Z,97494.69
2022-12-08T03:34:44.674Z,97483.75
2022-12-08T03:39:47.280Z,97479.16
2022-12-08T03:44:49.669Z,97479.88
2022-12-08T03:49:52.093Z,97473.25
2022-12-08T03:54:54.474Z,97464.88
2022-12-08T03:59:57.041Z,97465.66
2022-12-08T04:04:59.559Z,97457.97
2022-12-08T04:10:02.217Z,97450.31
2022-12-08T04:15:05.268Z,97445.69
2022-12-08T04:20:08.078Z,97449.56
2022-12-08T04:25:10.606Z,97450.31
2022-12-08T04:30:13.258Z,97447.91
2022-12-08T04:35:15.674Z,97445.22
2022-12-08T04:40:18.611Z,97443.22
2022-12-08T04:45:21.136Z,97444.00
2022-12-08T04:50:23.521Z,97438.91
2022-12-08T04:55:26.101Z,97441.38
2022-12-08T05:00:28.708Z,97442.34
2022-12-08T05:05:31.094Z,97436.97
2022-12-08T05:10:33.832Z,97428.72
2022-12-08T05:15:36.335Z,97421.81
2022-12-08T05:20:38.753Z,97414.19
2022-12-08T05:25:41.256Z,97415.75
2022-12-08T05:30:43.715Z,97412.53
2022-12-08T05:35:46.108Z,97420.81
2022-12-08T05:40:48.566Z,97417.00
2022-12-08T05:45:51.303Z,97417.13
2022-12-08T05:50:53.929Z,97420.22
2022-12-08T05:55:56.510Z,97416.94
2022-12-08T06:00:59.293Z,97417.91
2022-12-08T06:06:01.838Z,97413.22
2022-12-08T06:11:04.207Z,97413.88
2022-12-08T06:16:07.352Z,97406.53
2022-12-08T06:21:12.247Z,97401.94
2022-12-08T06:26:15.564Z,97408.75
2022-12-08T06:31:20.773Z,97407.00
2022-12-08T06:36:25.844Z,97421.13
2022-12-08T06:41:28.733Z,97412.53
2022-12-08T06:46:31.179Z,97409.06
2022-12-08T06:51:33.659Z,97412.66
2022-12-08T06:56:36.071Z,97420.34
2022-12-08T07:01:38.504Z,97420.59
2022-12-08T07:06:40.955Z,97416.53
2022-12-08T07:11:43.334Z,97424.16
2022-12-08T07:16:45.835Z,97427.00
2022-12-08T07:21:48.331Z,97428.56
2022-12-08T07:26:50.833Z,97417.31
2022-12-08T07:31:53.236Z,97420.69
2022-12-08T07:36:55.682Z,97423.97
2022-12-08T07:41:58.673Z,97419.63
2022-12-08T07:47:02.438Z,97428.81
2022-12-08T07:52:04.837Z,97425.03
2022-12-08T07:57:07.325Z,97424.81
2022-12-08T08:02:25.987Z,97414.97
2022-12-08T08:07:30.703Z,97417.59
2022-12-08T08:12:33.536Z,97413.78
2022-12-08T08:17:37.281Z,97411.16
2022-12-08T08:22:39.865Z,97404.84
2022-12-08T08:27:42.885Z,97403.00
2022-12-08T08:32:45.407Z,97409.88
2022-12-08T08:37:49.415Z,97418.38
2022-12-08T08:42:52.152Z,97415.13
2022-12-08T08:47:54.543Z,97412.53
2022-12-08T08:52:56.995Z,97410.31
2022-12-08T08:57:59.683Z,97404.19
2022-12-08T09:03:02.216Z,97409.22
2022-12-08T09:08:04.825Z,97402.91
2022-12-08T09:13:07.324Z,97401.69
2022-12-08T09:18:09.818Z,97386.81
2022-12-08T09:23:12.261Z,97386.72
2022-12-08T09:28:15.243Z,97384.44
2022-12-08T09:33:17.785Z,97393.41
2022-12-08T09:38:20.225Z,97385.53
2022-12-08T09:43:47.211Z,97381.66
2022-12-08T09:48:59.092Z,97377.41
2022-12-08T09:54:19.473Z,97375.97
2022-12-08T09:59:44.460Z,97369.53
2022-12-08T10:04:46.961Z,97368.06
2022-12-08T10:10:01.502Z,97364.81
2022-12-08T10:15:25.156Z,97346.72
2022-12-08T10:20:50.654Z,97342.91
2022-12-08T10:26:00.935Z,97349.44
2022-12-08T10:31:03.507Z,97333.97
2022-12-08T10:36:06.397Z,97334.69
2022-12-08T10:41:11.786Z,97338.06
2022-12-08T10:46:20.796Z,97335.25
2022-12-08T10:51:42.735Z,97317.19
2022-12-08T10:56:55.530Z,97317.69
2022-12-08T11:01:58.424Z,97306.34
2022-12-08T11:07:01.526Z,97300.75
2022-12-08T11:12:15.228Z,97283.03
2022-12-08T11:17:22.256Z,97275.13
2022-12-08T11:22:30.441Z,97274.66
2022-12-08T11:27:37.147Z,97259.59
2022-12-08T11:32:43.037Z,97259.53
2022-12-08T11:37:47.620Z,97244.75
2022-12-08T11:43:08.700Z,97245.81
2022-12-08T11:48:19.526Z,97237.81
2022-12-08T11:53:29.527Z,97231.59
2022-12-08T11:58:57.547Z,97232.97
2022-12-08T12:04:00.694Z,97231.44
2022-12-08T12:09:16.788Z,97240.72
2022-12-08T12:14:42.950Z,97226.56
2022-12-08T12:19:48.474Z,97223.59
2022-12-08T12:24:52.593Z,97228.75
2022-12-08T12:29:59.724Z,97222.78
2022-12-08T12:35:02.498Z,97218.09
2022-12-08T12:40:22.439Z,97206.66
2022-12-08T12:45:33.708Z,97204.63
2022-12-08T12:50:46.706Z,97198.81
2022-12-08T12:55:59.870Z,97194.34
2022-12-08T13:01:11.855Z,97179.66
2022-12-08T13:06:22.179Z,97187.75
2022-12-08T13:11:25.082Z,97182.81
2022-12-08T13:16:31.817Z,97188.78
2022-12-08T13:21:39.901Z,97186.41
2022-12-08T13:26:47.936Z,97183.53
2022-12-08T13:31:56.255Z,97187.72
2022-12-08T13:37:28.647Z,97180.44
2022-12-08T13:42:50.797Z,97184.47
2022-12-08T13:48:35.310Z,97183.78
2022-12-08T13:59:18.805Z,97170.53
2022-12-08T14:05:09.352Z,97177.56
2022-12-08T14:09:47.037Z,97177.69
2022-12-08T14:15:08.561Z,97174.31
2022-12-08T14:20:19.800Z,97176.94
2022-12-08T14:25:24.077Z,97183.25
2022-12-08T14:30:31.499Z,97178.88
2022-12-08T14:35:38.930Z,97175.63
2022-12-08T14:40:49.242Z,97188.28
2022-12-08T14:45:54.431Z,97178.19
2022-12-08T14:51:02.572Z,97180.00
2022-12-08T14:56:36.998Z,97179.59
2022-12-08T15:01:40.004Z,97187.25
2022-12-08T15:07:12.271Z,97178.56
2022-12-08T15:12:14.784Z,97176.50
2022-12-08T15:17:48.970Z,97182.34
2022-12-08T15:22:52.329Z,97178.78
2022-12-08T15:27:56.508Z,97174.28
2022-12-08T15:33:02.050Z,97175.22
2022-12-08T15:38:05.815Z,97176.94
2022-12-08T15:43:11.069Z,97169.63
2022-12-08T15:48:25.788Z,97164.63
2022-12-08T15:53:28.445Z,97170.81
2022-12-08T15:58:52.987Z,97159.22
2022-12-08T16:09:21.396Z,97154.91
2022-12-08T16:15:30.329Z,97147.94
2022-12-08T16:19:46.757Z,97147.66
2022-12-08T16:24:49.188Z,97147.25
2022-12-08T16:29:51.988Z,97144.00
2022-12-08T16:34:55.135Z,97136.56
2022-12-08T16:39:58.859Z,97133.47
2022-12-08T16:45:07.028Z,97136.78
2022-12-08T16:50:20.515Z,97128.06
2022-12-08T16:55:22.924Z,97133.03
2022-12-08T17:00:28.784Z,97137.28
2022-12-08T17:05:31.643Z,97139.09
2022-12-08T17:10:35.743Z,97135.97
2022-12-08T17:15:39.776Z,97126.75
2022-12-08T17:20:42.210Z,97137.63
2022-12-08T17:25:45.973Z,97129.94
2022-12-08T17:30:48.367Z,97133.78
2022-12-08T17:35:52.676Z,97140.69
2022-12-08T17:40:58.762Z,97145.22
2022-12-08T17:46:01.677Z,97136.56
2022-12-08T17:51:08.772Z,97137.75
2022-12-08T17:56:18.082Z,97135.06
2022-12-08T18:01:20.794Z,97147.25
2022-12-08T18:06:25.780Z,97148.03
2022-12-08T18:11:32.865Z,97143.91
2022-12-08T18:16:36.087Z,97145.41
2022-12-08T18:21:39.565Z,97147.34
2022-12-08T18:26:42.023Z,97142.19
2022-12-08T18:31:44.443Z,97137.09
2022-12-08T18:36:47.604Z,97132.09
2022-12-08T18:41:50.405Z,97132.81
2022-12-08T18:46:55.467Z,97127.44
2022-12-08T18:51:57.916Z,97133.88
2022-12-08T18:57:00.699Z,97128.28
2022-12-08T19:02:03.335Z,97129.63
2022-12-08T19:07:08.643Z,97114.25
2022-12-08T19:12:13.078Z,97119.09
2022-12-08T19:17:15.409Z,97117.00
2022-12-08T19:22:17.792Z,97117.09
2022-12-08T19:27:20.315Z,97111.06
2022-12-08T19:32:22.935Z,97101.88
2022-12-08T19:37:25.488Z,97106.97
2022-12-08T19:42:46.310Z,97106.63
2022-12-08T19:47:49.349Z,97101.81
2022-12-08T19:52:52.420Z,97095.81
2022-12-08T19:57:56.757Z,97103.81
2022-12-08T20:03:00.240Z,97094.28
2022-12-08T20:08:03.206Z,97101.81
2022-12-08T20:13:25.707Z,97097.31
2022-12-08T20:18:29.016Z,97104.13
2022-12-08T20:23:32.387Z,97104.91
2022-12-08T20:28:35.997Z,97092.78
2022-12-08T20:33:38.398Z,97100.28
2022-12-08T20:38:41.127Z,97098.88
2022-12-08T20:43:47.537Z,97093.50
2022-12-08T20:48:50.039Z,97100.94
2022-12-08T20:53:52.582Z,97104.53
2022-12-08T20:58:56.224Z,97101.06
2022-12-08T21:03:59.225Z,97099.16
2022-12-08T21:09:02.160Z,97101.38
2022-12-08T21:14:05.360Z,97100.78
2022-12-08T21:19:08.474Z,97100.00
2022-12-08T21:24:11.238Z,97085.16
2022-12-08T21:29:13.757Z,97086.53
2022-12-08T21:34:16.253Z,97084.81
2022-12-08T21:39:18.851Z,97086.63
2022-12-08T21:44:21.584Z,97082.75
2022-12-08T21:49:24.129Z,97095.88
2022-12-08T21:54:26.808Z,97089.75
2022-12-08T21:59:29.965Z,97085.88
2022-12-08T22:04:32.619Z,97080.09
2022-12-08T22:09:35.435Z,97090.09
2022-12-08T22:14:39.575Z,97102.53
2022-12-08T22:19:42.001Z,97097.25
2022-12-08T22:24:44.517Z,97091.00
2022-12-08T22:29:47.630Z,97090.91
2022-12-08T22:34:49.984Z,97082.59
2022-12-08T22:39:52.750Z,97084.28
2022-12-08T22:44:55.187Z,97087.03
2022-12-08T22:49:57.651Z,97075.53
2022-12-08T22:55:00.295Z,97073.84
2022-12-08T23:00:03.633Z,97069.53
2022-12-08T23:05:06.964Z,97066.75
2022-12-08T23:10:11.287Z,97054.59
2022-12-08T23:15:14.358Z,97047.22
2022-12-08T23:20:16.957Z,97046.28
2022-12-08T23:25:19.495Z,97046.06
2022-12-08T23:30:22.220Z,97039.31
2022-12-08T23:35:24.673Z,97028.31
2022-12-08T23:40:27.129Z,97027.34
2022-12-08T23:45:29.927Z,97029.53
2022-12-08T23:50:32.669Z,97021.56
2022-12-08T23:55:35.297Z,97011.69
